sensor_id;sensor_type;location;lat;lon;timestamp;P1;durP1;ratioP1;P2;durP2;ratioP2
51368;SDS011;37459;51.416;5.502;2022-11-20T00:01:32;17.75;;;11.45;;
51368;SDS011;37459;51.416;5.502;2022-11-20T00:03:59;18.88;;;11.95;;
51368;SDS011;37459;51.416;5.502;2022-11-20T00:06:26;19.15;;;11.25;;
51368;SDS011;37459;51.416;5.502;2022-11-20T00:08:54;18.05;;;11.90;;
51368;SDS011;37459;51.416;5.502;2022-11-20T00:11:22;17.92;;;10.85;;
51368;SDS011;37459;51.416;5.502;2022-11-20T00:13:51;19.08;;;11.82;;
51368;SDS011;37459;51.416;5.502;2022-11-20T00:16:19;20.48;;;12.05;;
51368;SDS011;37459;51.416;5.502;2022-11-20T00:18:48;18.20;;;11.27;;
51368;SDS011;37459;51.416;5.502;2022-11-20T00:21:16;19.88;;;11.82;;
51368;SDS011;37459;51.416;5.502;2022-11-20T00:23:44;19.70;;;11.88;;
51368;SDS011;37459;51.416;5.502;2022-11-20T00:26:12;18.27;;;11.52;;
51368;SDS011;37459;51.416;5.502;2022-11-20T00:28:40;17.45;;;11.80;;
51368;SDS011;37459;51.416;5.502;2022-11-20T00:31:08;17.55;;;11.32;;
51368;SDS011;37459;51.416;5.502;2022-11-20T00:33:37;19.15;;;11.88;;
51368;SDS011;37459;51.416;5.502;2022-11-20T00:36:06;18.17;;;11.30;;
51368;SDS011;37459;51.416;5.502;2022-11-20T00:38:34;19.10;;;11.70;;
51368;SDS011;37459;51.416;5.502;2022-11-20T00:41:01;19.92;;;11.77;;
51368;SDS011;37459;51.416;5.502;2022-11-20T00:43:28;20.00;;;12.30;;
51368;SDS011;37459;51.416;5.502;2022-11-20T00:45:58;21.13;;;11.93;;
51368;SDS011;37459;51.416;5.502;2022-11-20T00:48:25;20.05;;;11.75;;
51368;SDS011;37459;51.416;5.502;2022-11-20T00:50:52;19.88;;;12.10;;
51368;SDS011;37459;51.416;5.502;2022-11-20T00:53:20;22.70;;;14.52;;
51368;SDS011;37459;51.416;5.502;2022-11-20T00:55:54;29.38;;;18.85;;
51368;SDS011;37459;51.416;5.502;2022-11-20T00:58:21;24.13;;;14.95;;
51368;SDS011;37459;51.416;5.502;2022-11-20T01:00:47;19.17;;;12.10;;
51368;SDS011;37459;51.416;5.502;2022-11-20T01:03:15;19.60;;;12.23;;
51368;SDS011;37459;51.416;5.502;2022-11-20T01:05:41;18.15;;;12.13;;
51368;SDS011;37459;51.416;5.502;2022-11-20T01:08:08;21.13;;;12.27;;
51368;SDS011;37459;51.416;5.502;2022-11-20T01:10:36;19.02;;;11.75;;
51368;SDS011;37459;51.416;5.502;2022-11-20T01:13:02;19.42;;;12.43;;
51368;SDS011;37459;51.416;5.502;2022-11-20T01:15:46;20.23;;;12.68;;
51368;SDS011;37459;51.416;5.502;2022-11-20T01:18:13;21.83;;;12.35;;
51368;SDS011;37459;51.416;5.502;2022-11-20T01:20:39;18.75;;;12.13;;
51368;SDS011;37459;51.416;5.502;2022-11-20T01:23:06;18.95;;;12.77;;
51368;SDS011;37459;51.416;5.502;2022-11-20T01:25:33;20.92;;;12.30;;
51368;SDS011;37459;51.416;5.502;2022-11-20T01:28:01;18.42;;;11.93;;
51368;SDS011;37459;51.416;5.502;2022-11-20T01:30:28;21.33;;;12.88;;
51368;SDS011;37459;51.416;5.502;2022-11-20T01:32:54;18.77;;;11.90;;
51368;SDS011;37459;51.416;5.502;2022-11-20T01:35:21;19.42;;;12.48;;
51368;SDS011;37459;51.416;5.502;2022-11-20T01:37:48;19.85;;;13.13;;
51368;SDS011;37459;51.416;5.502;2022-11-20T01:40:16;21.75;;;13.00;;
51368;SDS011;37459;51.416;5.502;2022-11-20T01:42:44;20.35;;;12.68;;
51368;SDS011;37459;51.416;5.502;2022-11-20T01:45:49;21.00;;;12.30;;
51368;SDS011;37459;51.416;5.502;2022-11-20T01:48:23;21.17;;;12.95;;
51368;SDS011;37459;51.416;5.502;2022-11-20T01:50:54;19.65;;;12.32;;
51368;SDS011;37459;51.416;5.502;2022-11-20T01:53:24;19.23;;;12.20;;
51368;SDS011;37459;51.416;5.502;2022-11-20T01:55:54;21.77;;;12.88;;
51368;SDS011;37459;51.416;5.502;2022-11-20T01:58:25;21.23;;;13.68;;
51368;SDS011;37459;51.416;5.502;2022-11-20T02:00:57;21.48;;;13.82;;
51368;SDS011;37459;51.416;5.502;2022-11-20T02:03:24;20.48;;;13.05;;
51368;SDS011;37459;51.416;5.502;2022-11-20T02:05:51;21.17;;;13.27;;
51368;SDS011;37459;51.416;5.502;2022-11-20T02:08:22;21.48;;;13.63;;
51368;SDS011;37459;51.416;5.502;2022-11-20T02:10:49;20.63;;;12.07;;
51368;SDS011;37459;51.416;5.502;2022-11-20T02:13:16;21.35;;;14.10;;
51368;SDS011;37459;51.416;5.502;2022-11-20T02:16:02;20.38;;;12.32;;
51368;SDS011;37459;51.416;5.502;2022-11-20T02:18:30;22.35;;;13.73;;
51368;SDS011;37459;51.416;5.502;2022-11-20T02:20:58;21.70;;;13.07;;
51368;SDS011;37459;51.416;5.502;2022-11-20T02:23:31;20.90;;;13.20;;
51368;SDS011;37459;51.416;5.502;2022-11-20T02:26:06;21.23;;;12.90;;
51368;SDS011;37459;51.416;5.502;2022-11-20T02:28:35;20.58;;;13.07;;
51368;SDS011;37459;51.416;5.502;2022-11-20T02:31:01;20.95;;;13.38;;
51368;SDS011;37459;51.416;5.502;2022-11-20T02:33:28;20.30;;;13.38;;
51368;SDS011;37459;51.416;5.502;2022-11-20T02:35:55;21.60;;;13.18;;
51368;SDS011;37459;51.416;5.502;2022-11-20T02:38:21;20.58;;;12.48;;
51368;SDS011;37459;51.416;5.502;2022-11-20T02:40:48;21.08;;;13.75;;
51368;SDS011;37459;51.416;5.502;2022-11-20T02:43:16;21.65;;;13.73;;
51368;SDS011;37459;51.416;5.502;2022-11-20T02:45:43;20.95;;;13.73;;
51368;SDS011;37459;51.416;5.502;2022-11-20T02:48:09;21.52;;;13.95;;
51368;SDS011;37459;51.416;5.502;2022-11-20T02:50:36;24.65;;;14.02;;
51368;SDS011;37459;51.416;5.502;2022-11-20T02:53:04;22.55;;;13.88;;
51368;SDS011;37459;51.416;5.502;2022-11-20T02:55:31;22.40;;;14.20;;
51368;SDS011;37459;51.416;5.502;2022-11-20T02:57:58;24.25;;;14.18;;
51368;SDS011;37459;51.416;5.502;2022-11-20T03:00:25;25.60;;;14.00;;
51368;SDS011;37459;51.416;5.502;2022-11-20T03:02:52;20.52;;;13.48;;
51368;SDS011;37459;51.416;5.502;2022-11-20T03:05:18;24.25;;;14.35;;
51368;SDS011;37459;51.416;5.502;2022-11-20T03:07:45;22.23;;;13.45;;
51368;SDS011;37459;51.416;5.502;2022-11-20T03:10:11;23.85;;;14.15;;
51368;SDS011;37459;51.416;5.502;2022-11-20T03:12:38;23.60;;;14.40;;
51368;SDS011;37459;51.416;5.502;2022-11-20T03:15:05;23.63;;;13.82;;
51368;SDS011;37459;51.416;5.502;2022-11-20T03:17:33;21.35;;;14.27;;
51368;SDS011;37459;51.416;5.502;2022-11-20T03:19:59;23.58;;;14.48;;
51368;SDS011;37459;51.416;5.502;2022-11-20T03:22:28;22.45;;;14.52;;
51368;SDS011;37459;51.416;5.502;2022-11-20T03:24:55;21.90;;;13.82;;
51368;SDS011;37459;51.416;5.502;2022-11-20T03:27:21;25.88;;;14.77;;
51368;SDS011;37459;51.416;5.502;2022-11-20T03:29:48;25.35;;;14.57;;
51368;SDS011;37459;51.416;5.502;2022-11-20T03:32:14;21.55;;;13.43;;
51368;SDS011;37459;51.416;5.502;2022-11-20T03:34:42;22.35;;;14.23;;
51368;SDS011;37459;51.416;5.502;2022-11-20T03:37:09;24.33;;;13.85;;
51368;SDS011;37459;51.416;5.502;2022-11-20T03:39:35;22.65;;;14.52;;
51368;SDS011;37459;51.416;5.502;2022-11-20T03:42:02;22.25;;;14.63;;
51368;SDS011;37459;51.416;5.502;2022-11-20T03:44:48;22.40;;;14.25;;
51368;SDS011;37459;51.416;5.502;2022-11-20T03:47:15;22.42;;;14.10;;
51368;SDS011;37459;51.416;5.502;2022-11-20T03:49:43;22.75;;;14.32;;
51368;SDS011;37459;51.416;5.502;2022-11-20T03:52:09;21.70;;;15.07;;
51368;SDS011;37459;51.416;5.502;2022-11-20T03:54:36;23.02;;;14.13;;
51368;SDS011;37459;51.416;5.502;2022-11-20T03:57:02;22.85;;;14.43;;
51368;SDS011;37459;51.416;5.502;2022-11-20T03:59:29;25.38;;;15.23;;
51368;SDS011;37459;51.416;5.502;2022-11-20T04:01:55;22.67;;;14.43;;
51368;SDS011;37459;51.416;5.502;2022-11-20T04:04:22;21.60;;;14.20;;
51368;SDS011;37459;51.416;5.502;2022-11-20T04:06:50;21.65;;;13.55;;
51368;SDS011;37459;51.416;5.502;2022-11-20T04:09:16;20.25;;;13.32;;
51368;SDS011;37459;51.416;5.502;2022-11-20T04:11:43;22.13;;;13.93;;
51368;SDS011;37459;51.416;5.502;2022-11-20T04:14:11;22.60;;;14.02;;
51368;SDS011;37459;51.416;5.502;2022-11-20T04:16:40;21.60;;;13.68;;
51368;SDS011;37459;51.416;5.502;2022-11-20T04:19:10;22.27;;;14.43;;
51368;SDS011;37459;51.416;5.502;2022-11-20T04:21:37;22.95;;;13.88;;
51368;SDS011;37459;51.416;5.502;2022-11-20T04:24:05;22.05;;;13.85;;
51368;SDS011;37459;51.416;5.502;2022-11-20T04:26:32;21.38;;;14.05;;
51368;SDS011;37459;51.416;5.502;2022-11-20T04:29:00;22.05;;;14.13;;
51368;SDS011;37459;51.416;5.502;2022-11-20T04:31:27;23.05;;;14.55;;
51368;SDS011;37459;51.416;5.502;2022-11-20T04:33:55;21.98;;;14.50;;
51368;SDS011;37459;51.416;5.502;2022-11-20T04:36:25;22.88;;;13.77;;
51368;SDS011;37459;51.416;5.502;2022-11-20T04:38:53;24.13;;;14.85;;
51368;SDS011;37459;51.416;5.502;2022-11-20T04:41:23;22.95;;;14.27;;
51368;SDS011;37459;51.416;5.502;2022-11-20T04:43:51;23.00;;;15.43;;
51368;SDS011;37459;51.416;5.502;2022-11-20T04:46:19;21.77;;;13.73;;
51368;SDS011;37459;51.416;5.502;2022-11-20T04:48:47;21.85;;;14.20;;
51368;SDS011;37459;51.416;5.502;2022-11-20T04:51:13;24.42;;;14.57;;
51368;SDS011;37459;51.416;5.502;2022-11-20T04:53:40;23.48;;;14.50;;
51368;SDS011;37459;51.416;5.502;2022-11-20T04:56:08;22.55;;;13.50;;
51368;SDS011;37459;51.416;5.502;2022-11-20T04:58:37;23.35;;;14.48;;
51368;SDS011;37459;51.416;5.502;2022-11-20T05:01:06;25.67;;;14.40;;
51368;SDS011;37459;51.416;5.502;2022-11-20T05:03:35;22.70;;;14.98;;
51368;SDS011;37459;51.416;5.502;2022-11-20T05:06:02;22.83;;;14.68;;
51368;SDS011;37459;51.416;5.502;2022-11-20T05:08:29;23.95;;;15.30;;
51368;SDS011;37459;51.416;5.502;2022-11-20T05:10:59;23.75;;;14.27;;
51368;SDS011;37459;51.416;5.502;2022-11-20T05:13:26;23.63;;;14.32;;
51368;SDS011;37459;51.416;5.502;2022-11-20T05:15:54;22.70;;;13.85;;
51368;SDS011;37459;51.416;5.502;2022-11-20T05:18:21;22.00;;;14.05;;
51368;SDS011;37459;51.416;5.502;2022-11-20T05:20:53;23.40;;;14.52;;
51368;SDS011;37459;51.416;5.502;2022-11-20T05:23:21;23.17;;;14.55;;
51368;SDS011;37459;51.416;5.502;2022-11-20T05:25:47;21.95;;;14.02;;
51368;SDS011;37459;51.416;5.502;2022-11-20T05:28:14;24.08;;;14.93;;
51368;SDS011;37459;51.416;5.502;2022-11-20T05:30:40;22.48;;;14.80;;
51368;SDS011;37459;51.416;5.502;2022-11-20T05:33:08;24.85;;;15.68;;
51368;SDS011;37459;51.416;5.502;2022-11-20T05:35:35;26.23;;;15.15;;
51368;SDS011;37459;51.416;5.502;2022-11-20T05:38:02;24.90;;;15.32;;
51368;SDS011;37459;51.416;5.502;2022-11-20T05:40:28;23.58;;;14.88;;
51368;SDS011;37459;51.416;5.502;2022-11-20T05:42:55;22.80;;;14.85;;
51368;SDS011;37459;51.416;5.502;2022-11-20T05:45:21;21.25;;;14.65;;
51368;SDS011;37459;51.416;5.502;2022-11-20T05:47:48;21.83;;;14.43;;
51368;SDS011;37459;51.416;5.502;2022-11-20T05:50:16;22.33;;;14.60;;
51368;SDS011;37459;51.416;5.502;2022-11-20T05:52:42;26.60;;;15.38;;
51368;SDS011;37459;51.416;5.502;2022-11-20T05:55:09;23.48;;;14.85;;
51368;SDS011;37459;51.416;5.502;2022-11-20T05:57:35;23.83;;;15.00;;
51368;SDS011;37459;51.416;5.502;2022-11-20T06:00:02;22.67;;;14.32;;
51368;SDS011;37459;51.416;5.502;2022-11-20T06:02:29;23.67;;;14.82;;
51368;SDS011;37459;51.416;5.502;2022-11-20T06:04:56;23.08;;;14.10;;
51368;SDS011;37459;51.416;5.502;2022-11-20T06:07:24;21.60;;;14.32;;
51368;SDS011;37459;51.416;5.502;2022-11-20T06:09:50;22.50;;;14.50;;
51368;SDS011;37459;51.416;5.502;2022-11-20T06:12:17;24.52;;;15.07;;
51368;SDS011;37459;51.416;5.502;2022-11-20T06:14:43;22.90;;;14.77;;
51368;SDS011;37459;51.416;5.502;2022-11-20T06:17:10;23.50;;;15.18;;
51368;SDS011;37459;51.416;5.502;2022-11-20T06:19:36;24.58;;;14.63;;
51368;SDS011;37459;51.416;5.502;2022-11-20T06:22:03;22.73;;;14.45;;
51368;SDS011;37459;51.416;5.502;2022-11-20T06:24:30;23.70;;;14.35;;
51368;SDS011;37459;51.416;5.502;2022-11-20T06:26:57;22.73;;;14.82;;
51368;SDS011;37459;51.416;5.502;2022-11-20T06:29:23;21.17;;;14.25;;
51368;SDS011;37459;51.416;5.502;2022-11-20T06:31:50;22.23;;;14.30;;
51368;SDS011;37459;51.416;5.502;2022-11-20T06:34:17;22.92;;;14.82;;
51368;SDS011;37459;51.416;5.502;2022-11-20T06:36:43;20.88;;;13.98;;
51368;SDS011;37459;51.416;5.502;2022-11-20T06:39:10;22.52;;;15.10;;
51368;SDS011;37459;51.416;5.502;2022-11-20T06:41:38;22.58;;;14.10;;
51368;SDS011;37459;51.416;5.502;2022-11-20T06:44:04;22.17;;;15.07;;
51368;SDS011;37459;51.416;5.502;2022-11-20T06:46:31;24.55;;;14.15;;
51368;SDS011;37459;51.416;5.502;2022-11-20T06:48:58;22.30;;;14.57;;
51368;SDS011;37459;51.416;5.502;2022-11-20T06:51:24;18.80;;;13.57;;
51368;SDS011;37459;51.416;5.502;2022-11-20T06:53:51;22.45;;;14.07;;
51368;SDS011;37459;51.416;5.502;2022-11-20T06:56:17;22.63;;;14.48;;
51368;SDS011;37459;51.416;5.502;2022-11-20T06:58:45;21.05;;;13.45;;
51368;SDS011;37459;51.416;5.502;2022-11-20T07:01:13;23.42;;;14.35;;
51368;SDS011;37459;51.416;5.502;2022-11-20T07:03:40;23.20;;;14.32;;
51368;SDS011;37459;51.416;5.502;2022-11-20T07:06:07;21.33;;;14.05;;
51368;SDS011;37459;51.416;5.502;2022-11-20T07:08:34;23.42;;;14.90;;
51368;SDS011;37459;51.416;5.502;2022-11-20T07:11:01;20.90;;;13.93;;
51368;SDS011;37459;51.416;5.502;2022-11-20T07:13:29;20.35;;;13.95;;
51368;SDS011;37459;51.416;5.502;2022-11-20T07:16:00;21.75;;;14.38;;
51368;SDS011;37459;51.416;5.502;2022-11-20T07:18:27;21.73;;;14.60;;
51368;SDS011;37459;51.416;5.502;2022-11-20T07:20:54;24.52;;;14.48;;
51368;SDS011;37459;51.416;5.502;2022-11-20T07:23:21;24.40;;;14.93;;
51368;SDS011;37459;51.416;5.502;2022-11-20T07:25:47;22.65;;;14.02;;
51368;SDS011;37459;51.416;5.502;2022-11-20T07:28:14;22.98;;;14.50;;
51368;SDS011;37459;51.416;5.502;2022-11-20T07:30:40;23.50;;;14.68;;
51368;SDS011;37459;51.416;5.502;2022-11-20T07:33:08;23.98;;;14.82;;
51368;SDS011;37459;51.416;5.502;2022-11-20T07:35:35;23.85;;;14.77;;
51368;SDS011;37459;51.416;5.502;2022-11-20T07:38:01;24.02;;;14.38;;
51368;SDS011;37459;51.416;5.502;2022-11-20T07:40:28;23.27;;;15.07;;
51368;SDS011;37459;51.416;5.502;2022-11-20T07:42:55;21.23;;;14.25;;
51368;SDS011;37459;51.416;5.502;2022-11-20T07:45:22;21.60;;;15.05;;
51368;SDS011;37459;51.416;5.502;2022-11-20T07:47:49;24.92;;;15.07;;
51368;SDS011;37459;51.416;5.502;2022-11-20T07:50:18;23.15;;;14.52;;
51368;SDS011;37459;51.416;5.502;2022-11-20T07:52:45;24.33;;;15.05;;
51368;SDS011;37459;51.416;5.502;2022-11-20T07:55:11;23.80;;;14.90;;
51368;SDS011;37459;51.416;5.502;2022-11-20T07:57:38;24.27;;;15.57;;
51368;SDS011;37459;51.416;5.502;2022-11-20T08:00:06;23.15;;;14.48;;
51368;SDS011;37459;51.416;5.502;2022-11-20T08:02:36;23.98;;;14.85;;
51368;SDS011;37459;51.416;5.502;2022-11-20T08:05:04;21.58;;;15.05;;
51368;SDS011;37459;51.416;5.502;2022-11-20T08:07:36;24.60;;;14.52;;
51368;SDS011;37459;51.416;5.502;2022-11-20T08:10:03;25.92;;;14.90;;
51368;SDS011;37459;51.416;5.502;2022-11-20T08:12:30;22.42;;;14.88;;
51368;SDS011;37459;51.416;5.502;2022-11-20T08:15:14;22.73;;;15.15;;
51368;SDS011;37459;51.416;5.502;2022-11-20T08:17:41;21.67;;;14.35;;
51368;SDS011;37459;51.416;5.502;2022-11-20T08:20:07;24.17;;;15.00;;
51368;SDS011;37459;51.416;5.502;2022-11-20T08:22:36;24.60;;;15.75;;
51368;SDS011;37459;51.416;5.502;2022-11-20T08:25:02;26.58;;;15.85;;
51368;SDS011;37459;51.416;5.502;2022-11-20T08:27:31;24.25;;;15.80;;
51368;SDS011;37459;51.416;5.502;2022-11-20T08:29:57;24.88;;;15.27;;
51368;SDS011;37459;51.416;5.502;2022-11-20T08:32:24;23.92;;;15.38;;
51368;SDS011;37459;51.416;5.502;2022-11-20T08:34:50;24.92;;;15.98;;
51368;SDS011;37459;51.416;5.502;2022-11-20T08:37:17;25.25;;;15.75;;
51368;SDS011;37459;51.416;5.502;2022-11-20T08:39:45;26.00;;;16.15;;
51368;SDS011;37459;51.416;5.502;2022-11-20T08:42:11;24.25;;;14.80;;
51368;SDS011;37459;51.416;5.502;2022-11-20T08:44:38;24.00;;;16.40;;
51368;SDS011;37459;51.416;5.502;2022-11-20T08:47:04;24.98;;;16.35;;
51368;SDS011;37459;51.416;5.502;2022-11-20T08:49:31;25.48;;;15.88;;
51368;SDS011;37459;51.416;5.502;2022-11-20T08:51:57;24.17;;;15.10;;
51368;SDS011;37459;51.416;5.502;2022-11-20T08:54:24;24.60;;;15.73;;
51368;SDS011;37459;51.416;5.502;2022-11-20T08:56:52;24.95;;;16.05;;
51368;SDS011;37459;51.416;5.502;2022-11-20T08:59:19;24.48;;;14.93;;
51368;SDS011;37459;51.416;5.502;2022-11-20T09:01:45;25.10;;;15.68;;
51368;SDS011;37459;51.416;5.502;2022-11-20T09:04:12;25.85;;;16.27;;
51368;SDS011;37459;51.416;5.502;2022-11-20T09:06:39;26.65;;;16.38;;
51368;SDS011;37459;51.416;5.502;2022-11-20T09:09:05;25.90;;;16.23;;
51368;SDS011;37459;51.416;5.502;2022-11-20T09:11:32;29.83;;;17.63;;
51368;SDS011;37459;51.416;5.502;2022-11-20T09:14:01;31.55;;;17.52;;
51368;SDS011;37459;51.416;5.502;2022-11-20T09:16:29;36.35;;;19.83;;
51368;SDS011;37459;51.416;5.502;2022-11-20T09:18:56;32.58;;;18.35;;
51368;SDS011;37459;51.416;5.502;2022-11-20T09:21:22;38.45;;;19.98;;
51368;SDS011;37459;51.416;5.502;2022-11-20T09:23:49;38.20;;;20.30;;
51368;SDS011;37459;51.416;5.502;2022-11-20T09:26:16;40.08;;;20.55;;
51368;SDS011;37459;51.416;5.502;2022-11-20T09:28:42;39.28;;;21.63;;
51368;SDS011;37459;51.416;5.502;2022-11-20T09:31:13;41.72;;;20.13;;
51368;SDS011;37459;51.416;5.502;2022-11-20T09:33:47;40.55;;;20.23;;
51368;SDS011;37459;51.416;5.502;2022-11-20T09:36:14;42.83;;;21.90;;
51368;SDS011;37459;51.416;5.502;2022-11-20T09:38:41;45.05;;;22.75;;
51368;SDS011;37459;51.416;5.502;2022-11-20T09:41:10;44.70;;;22.35;;
51368;SDS011;37459;51.416;5.502;2022-11-20T09:43:56;50.53;;;24.45;;
51368;SDS011;37459;51.416;5.502;2022-11-20T09:46:29;50.65;;;23.85;;
51368;SDS011;37459;51.416;5.502;2022-11-20T09:49:07;51.97;;;25.08;;
51368;SDS011;37459;51.416;5.502;2022-11-20T09:51:50;46.42;;;24.25;;
51368;SDS011;37459;51.416;5.502;2022-11-20T09:54:25;48.60;;;24.38;;
51368;SDS011;37459;51.416;5.502;2022-11-20T09:56:56;53.33;;;28.02;;
51368;SDS011;37459;51.416;5.502;2022-11-20T09:59:35;51.28;;;27.23;;
51368;SDS011;37459;51.416;5.502;2022-11-20T10:02:12;50.20;;;25.65;;
51368;SDS011;37459;51.416;5.502;2022-11-20T10:04:43;54.45;;;27.83;;
51368;SDS011;37459;51.416;5.502;2022-11-20T10:07:15;55.28;;;28.23;;
51368;SDS011;37459;51.416;5.502;2022-11-20T10:09:48;54.30;;;28.38;;
51368;SDS011;37459;51.416;5.502;2022-11-20T10:12:19;52.15;;;26.23;;
51368;SDS011;37459;51.416;5.502;2022-11-20T10:14:58;58.00;;;28.48;;
51368;SDS011;37459;51.416;5.502;2022-11-20T10:17:38;51.05;;;27.75;;
51368;SDS011;37459;51.416;5.502;2022-11-20T10:20:29;53.13;;;27.33;;
51368;SDS011;37459;51.416;5.502;2022-11-20T10:23:12;57.13;;;29.08;;
51368;SDS011;37459;51.416;5.502;2022-11-20T10:26:00;50.92;;;27.45;;
51368;SDS011;37459;51.416;5.502;2022-11-20T10:28:35;52.50;;;26.15;;
51368;SDS011;37459;51.416;5.502;2022-11-20T10:31:10;52.10;;;26.63;;
51368;SDS011;37459;51.416;5.502;2022-11-20T10:33:42;54.17;;;27.05;;
51368;SDS011;37459;51.416;5.502;2022-11-20T10:36:15;52.40;;;27.05;;
51368;SDS011;37459;51.416;5.502;2022-11-20T10:38:46;54.22;;;28.40;;
51368;SDS011;37459;51.416;5.502;2022-11-20T10:41:20;55.22;;;28.35;;
51368;SDS011;37459;51.416;5.502;2022-11-20T10:43:53;52.00;;;28.05;;
51368;SDS011;37459;51.416;5.502;2022-11-20T10:46:26;59.47;;;28.98;;
51368;SDS011;37459;51.416;5.502;2022-11-20T10:49:03;53.80;;;28.52;;
51368;SDS011;37459;51.416;5.502;2022-11-20T10:51:37;58.55;;;28.92;;
51368;SDS011;37459;51.416;5.502;2022-11-20T10:54:13;54.70;;;28.55;;
51368;SDS011;37459;51.416;5.502;2022-11-20T10:56:47;54.40;;;28.07;;
51368;SDS011;37459;51.416;5.502;2022-11-20T10:59:25;54.50;;;29.75;;
51368;SDS011;37459;51.416;5.502;2022-11-20T11:01:58;58.58;;;29.55;;
51368;SDS011;37459;51.416;5.502;2022-11-20T11:04:35;55.35;;;29.35;;
51368;SDS011;37459;51.416;5.502;2022-11-20T11:07:08;59.63;;;30.20;;
51368;SDS011;37459;51.416;5.502;2022-11-20T11:09:42;59.72;;;30.20;;
51368;SDS011;37459;51.416;5.502;2022-11-20T11:12:12;58.08;;;27.70;;
51368;SDS011;37459;51.416;5.502;2022-11-20T11:14:43;62.40;;;31.83;;
51368;SDS011;37459;51.416;5.502;2022-11-20T11:17:21;55.85;;;29.05;;
51368;SDS011;37459;51.416;5.502;2022-11-20T11:20:00;61.28;;;29.08;;
51368;SDS011;37459;51.416;5.502;2022-11-20T11:22:29;56.58;;;28.23;;
51368;SDS011;37459;51.416;5.502;2022-11-20T11:24:57;57.75;;;28.45;;
51368;SDS011;37459;51.416;5.502;2022-11-20T11:27:24;53.97;;;27.83;;
51368;SDS011;37459;51.416;5.502;2022-11-20T11:30:01;53.53;;;26.85;;
51368;SDS011;37459;51.416;5.502;2022-11-20T11:32:29;59.20;;;27.95;;
51368;SDS011;37459;51.416;5.502;2022-11-20T11:35:00;55.20;;;26.65;;
51368;SDS011;37459;51.416;5.502;2022-11-20T11:37:28;47.85;;;25.45;;
51368;SDS011;37459;51.416;5.502;2022-11-20T11:39:59;51.05;;;26.85;;
51368;SDS011;37459;51.416;5.502;2022-11-20T11:42:26;53.80;;;27.13;;
51368;SDS011;37459;51.416;5.502;2022-11-20T11:44:54;55.53;;;26.77;;
51368;SDS011;37459;51.416;5.502;2022-11-20T11:47:33;52.75;;;26.60;;
51368;SDS011;37459;51.416;5.502;2022-11-20T11:50:14;55.90;;;27.52;;
51368;SDS011;37459;51.416;5.502;2022-11-20T11:52:44;53.25;;;26.98;;
51368;SDS011;37459;51.416;5.502;2022-11-20T11:55:16;51.92;;;26.45;;
51368;SDS011;37459;51.416;5.502;2022-11-20T11:57:49;53.97;;;26.75;;
51368;SDS011;37459;51.416;5.502;2022-11-20T12:00:22;53.10;;;27.10;;
51368;SDS011;37459;51.416;5.502;2022-11-20T12:02:53;54.22;;;26.95;;
51368;SDS011;37459;51.416;5.502;2022-11-20T12:05:32;51.67;;;26.33;;
51368;SDS011;37459;51.416;5.502;2022-11-20T12:08:05;53.07;;;26.03;;
51368;SDS011;37459;51.416;5.502;2022-11-20T12:10:41;51.60;;;25.48;;
51368;SDS011;37459;51.416;5.502;2022-11-20T12:13:19;53.47;;;26.10;;
51368;SDS011;37459;51.416;5.502;2022-11-20T12:15:51;49.80;;;25.52;;
51368;SDS011;37459;51.416;5.502;2022-11-20T12:18:20;55.75;;;25.33;;
51368;SDS011;37459;51.416;5.502;2022-11-20T12:20:58;52.33;;;26.23;;
51368;SDS011;37459;51.416;5.502;2022-11-20T12:23:41;51.28;;;24.65;;
51368;SDS011;37459;51.416;5.502;2022-11-20T12:26:15;52.17;;;26.15;;
51368;SDS011;37459;51.416;5.502;2022-11-20T12:28:52;51.78;;;25.48;;
51368;SDS011;37459;51.416;5.502;2022-11-20T12:31:31;50.45;;;24.35;;
51368;SDS011;37459;51.416;5.502;2022-11-20T12:34:17;54.53;;;26.35;;
51368;SDS011;37459;51.416;5.502;2022-11-20T12:36:56;48.83;;;25.10;;
51368;SDS011;37459;51.416;5.502;2022-11-20T12:39:34;49.50;;;24.77;;
51368;SDS011;37459;51.416;5.502;2022-11-20T12:45:14;55.80;;;26.70;;
51368;SDS011;37459;51.416;5.502;2022-11-20T12:48:05;54.63;;;26.73;;
51368;SDS011;37459;51.416;5.502;2022-11-20T12:50:50;57.38;;;27.17;;
51368;SDS011;37459;51.416;5.502;2022-11-20T12:53:27;61.67;;;29.85;;
51368;SDS011;37459;51.416;5.502;2022-11-20T12:56:01;58.30;;;28.17;;
51368;SDS011;37459;51.416;5.502;2022-11-20T12:58:44;56.17;;;26.98;;
51368;SDS011;37459;51.416;5.502;2022-11-20T13:01:20;59.38;;;27.75;;
51368;SDS011;37459;51.416;5.502;2022-11-20T13:04:07;123.95;;;32.55;;
51368;SDS011;37459;51.416;5.502;2022-11-20T13:06:40;61.17;;;27.43;;
51368;SDS011;37459;51.416;5.502;2022-11-20T13:09:10;57.85;;;26.98;;
51368;SDS011;37459;51.416;5.502;2022-11-20T13:11:41;56.95;;;27.35;;
51368;SDS011;37459;51.416;5.502;2022-11-20T13:14:18;58.15;;;28.13;;
51368;SDS011;37459;51.416;5.502;2022-11-20T13:16:58;55.40;;;26.92;;
51368;SDS011;37459;51.416;5.502;2022-11-20T13:19:30;54.70;;;27.27;;
51368;SDS011;37459;51.416;5.502;2022-11-20T13:21:58;54.67;;;27.92;;
51368;SDS011;37459;51.416;5.502;2022-11-20T13:24:26;56.20;;;26.98;;
51368;SDS011;37459;51.416;5.502;2022-11-20T13:27:04;57.70;;;25.95;;
51368;SDS011;37459;51.416;5.502;2022-11-20T13:29:43;61.58;;;27.42;;
51368;SDS011;37459;51.416;5.502;2022-11-20T13:32:13;61.33;;;27.65;;
51368;SDS011;37459;51.416;5.502;2022-11-20T13:34:50;55.30;;;26.95;;
51368;SDS011;37459;51.416;5.502;2022-11-20T13:37:24;56.63;;;27.13;;
51368;SDS011;37459;51.416;5.502;2022-11-20T13:40:04;54.13;;;26.02;;
51368;SDS011;37459;51.416;5.502;2022-11-20T13:42:32;56.10;;;26.35;;
51368;SDS011;37459;51.416;5.502;2022-11-20T13:45:02;55.20;;;27.00;;
51368;SDS011;37459;51.416;5.502;2022-11-20T13:47:35;54.22;;;26.08;;
51368;SDS011;37459;51.416;5.502;2022-11-20T13:50:03;56.47;;;26.20;;
51368;SDS011;37459;51.416;5.502;2022-11-20T13:52:38;55.20;;;27.65;;
51368;SDS011;37459;51.416;5.502;2022-11-20T13:55:17;57.65;;;27.05;;
51368;SDS011;37459;51.416;5.502;2022-11-20T13:58:04;51.85;;;26.10;;
51368;SDS011;37459;51.416;5.502;2022-11-20T14:00:43;51.03;;;25.58;;
51368;SDS011;37459;51.416;5.502;2022-11-20T14:03:16;52.47;;;26.45;;
51368;SDS011;37459;51.416;5.502;2022-11-20T14:05:46;52.53;;;26.42;;
51368;SDS011;37459;51.416;5.502;2022-11-20T14:08:20;58.67;;;26.70;;
51368;SDS011;37459;51.416;5.502;2022-11-20T14:11:03;50.60;;;26.10;;
51368;SDS011;37459;51.416;5.502;2022-11-20T14:13:30;54.80;;;25.85;;
51368;SDS011;37459;51.416;5.502;2022-11-20T14:15:57;51.50;;;26.98;;
51368;SDS011;37459;51.416;5.502;2022-11-20T14:18:25;52.22;;;25.55;;
51368;SDS011;37459;51.416;5.502;2022-11-20T14:20:52;54.90;;;27.08;;
51368;SDS011;37459;51.416;5.502;2022-11-20T14:23:23;54.83;;;26.55;;
51368;SDS011;37459;51.416;5.502;2022-11-20T14:25:51;56.63;;;26.80;;
51368;SDS011;37459;51.416;5.502;2022-11-20T14:28:21;55.22;;;28.23;;
51368;SDS011;37459;51.416;5.502;2022-11-20T14:30:52;53.80;;;26.75;;
51368;SDS011;37459;51.416;5.502;2022-11-20T14:33:20;56.15;;;28.13;;
51368;SDS011;37459;51.416;5.502;2022-11-20T14:35:50;58.33;;;28.60;;
51368;SDS011;37459;51.416;5.502;2022-11-20T14:38:18;50.95;;;26.15;;
51368;SDS011;37459;51.416;5.502;2022-11-20T14:40:49;58.58;;;27.73;;